Pagina principale
METAR-TAF:

METAR-TAF

Aeroporti :

Aeroporto di Rimini-Miramare

Rimini, Italia

latitudine: 44-02N, longitudine: 012-37E, altezza: 12 m

Osservazione

Il bollettino è stato emesso 23 minuti fa, alle 02:50 UTC
Vento 2 kt da sud
Temperature 4°C
Umidità 87%
Pressione 1019 hPa
Visibilità 10 km o più

METAR: LIPR 240250Z AUTO 17002KT 9999 NCD 04/02 Q1019

Ora: 04:13 (03:13 UTC)

Previsione

Il bollettino è stato emesso 1 ora e 13 minuti fa, alle 02:00 UTC
Previsione valida dal 24 alle 03 UTC al 24 alle 12 UTC
Vento 5 kt da direzioni variabili
Visibilità: 6000 m
Temporaneamente
dal 24 alle 03 UTC al 24 alle 07 UTC
Visibilità: 2000 m
foschia

TAF: LIPR 240200Z 2403/2412 VRB05KT 6000 NSC TEMPO 2403/2407 2000 BR

Osservazioni e previsioni meteorologiche di più di 4000 aeroporti (messaggi METAR e TAF).

Le stazioni disponibili sono rappresentate dai dischi gialli e rossi sulla carta.

Puntare il mouse per vedere il nome della stazione.

Clicca sopra per visualizzare le osservazioni e previsioni meteorologiche.

Per cambiare la mappa : fare clic sui pulsanti verdi con una croce nera per ingrandire, il pulsante verde con un trattino per diminuire, o sulla freccia verde per le mappe adiacenti.


METAR-TAF: